createdAt,value
2022-11-01T00:01:58.014Z,10.77
2022-11-01T00:04:26.970Z,11.02
2022-11-01T00:06:53.696Z,10.35
2022-11-01T00:09:20.396Z,10.63
2022-11-01T00:11:47.086Z,10.20
2022-11-01T00:14:15.486Z,10.23
2022-11-01T00:16:42.570Z,10.00
2022-11-01T00:19:09.469Z,11.05
2022-11-01T00:21:36.388Z,11.35
2022-11-01T00:24:05.269Z,10.93
2022-11-01T00:26:32.200Z,9.70
2022-11-01T00:28:58.872Z,10.73
2022-11-01T00:31:25.641Z,10.52
2022-11-01T00:33:52.308Z,10.50
2022-11-01T00:36:19.002Z,9.43
2022-11-01T00:38:50.086Z,10.07
2022-11-01T00:41:16.881Z,8.20
2022-11-01T00:43:43.469Z,8.93
2022-11-01T00:46:10.572Z,8.35
2022-11-01T00:48:37.190Z,9.23
2022-11-01T00:51:03.928Z,8.80
2022-11-01T00:53:30.701Z,9.23
2022-11-01T00:56:05.736Z,8.63
2022-11-01T00:58:32.773Z,9.45
2022-11-01T01:00:59.948Z,9.38
2022-11-01T01:03:26.672Z,10.90
2022-11-01T01:05:56.229Z,10.43
2022-11-01T01:08:23.894Z,10.45
2022-11-01T01:10:51.261Z,11.05
2022-11-01T01:13:18.077Z,11.13
2022-11-01T01:15:47.602Z,10.60
2022-11-01T01:18:20.398Z,10.95
2022-11-01T01:20:47.172Z,11.40
2022-11-01T01:23:13.875Z,10.68
2022-11-01T01:25:41.354Z,11.98
2022-11-01T01:28:10.799Z,11.77
2022-11-01T01:30:41.326Z,11.23
2022-11-01T01:33:09.238Z,12.20
2022-11-01T01:35:37.368Z,12.25
2022-11-01T01:38:06.977Z,12.02
2022-11-01T01:40:34.589Z,11.77
2022-11-01T01:43:01.374Z,11.85
2022-11-01T01:45:37.116Z,12.55
2022-11-01T01:48:22.790Z,12.30
2022-11-01T01:50:57.206Z,11.85
2022-11-01T01:53:34.610Z,12.05
2022-11-01T01:56:36.021Z,12.50
2022-11-01T01:59:10.868Z,12.43
2022-11-01T02:01:42.548Z,12.48
2022-11-01T02:04:17.859Z,11.98
2022-11-01T02:06:44.512Z,12.70
2022-11-01T02:09:14.374Z,12.98
2022-11-01T02:11:41.038Z,13.65
2022-11-01T02:14:07.889Z,14.32
2022-11-01T02:17:00.046Z,14.80
2022-11-01T02:19:29.626Z,14.55
2022-11-01T02:22:23.327Z,14.75
2022-11-01T02:24:55.740Z,15.15
2022-11-01T02:27:28.960Z,15.93
2022-11-01T02:30:18.161Z,15.82
2022-11-01T02:33:17.656Z,15.48
2022-11-01T02:35:47.018Z,16.25
2022-11-01T02:38:38.049Z,15.52
2022-11-01T02:41:32.920Z,16.55
2022-11-01T02:44:03.519Z,16.73
2022-11-01T02:46:58.879Z,16.00
2022-11-01T02:49:29.187Z,16.70
2022-11-01T02:51:57.254Z,16.63
2022-11-01T02:54:28.271Z,16.08
2022-11-01T02:56:56.434Z,16.65
2022-11-01T02:59:30.113Z,14.48
2022-11-01T03:02:10.571Z,15.80
2022-11-01T03:04:37.528Z,17.90
2022-11-01T03:07:09.251Z,15.93
2022-11-01T03:09:42.023Z,16.30
2022-11-01T03:12:19.800Z,17.42
2022-11-01T03:14:52.326Z,17.63
2022-11-01T03:17:32.590Z,16.60
2022-11-01T03:20:28.655Z,16.67
2022-11-01T03:23:01.370Z,17.23
2022-11-01T03:25:42.982Z,16.38
2022-11-01T03:28:33.632Z,16.50
2022-11-01T03:31:06.318Z,15.80
2022-11-01T03:33:42.400Z,16.40
2022-11-01T03:36:14.829Z,15.93
2022-11-01T03:38:48.010Z,15.93
2022-11-01T03:41:17.157Z,16.00
2022-11-01T03:43:43.918Z,17.70
2022-11-01T03:46:13.674Z,15.60
2022-11-01T03:48:42.955Z,16.77
2022-11-01T03:51:13.018Z,15.20
2022-11-01T03:53:39.761Z,17.02
2022-11-01T03:56:08.871Z,15.52
2022-11-01T03:58:45.237Z,15.57
2022-11-01T04:01:14.259Z,15.80
2022-11-01T04:03:44.065Z,14.30
2022-11-01T04:06:10.789Z,15.40
2022-11-01T04:08:37.948Z,14.52
2022-11-01T04:11:04.995Z,14.88
2022-11-01T04:13:31.828Z,14.63
2022-11-01T04:16:19.450Z,13.70
2022-11-01T04:19:05.030Z,13.85
2022-11-01T04:21:34.553Z,14.73
2022-11-01T04:24:01.216Z,17.67
2022-11-01T04:26:30.366Z,17.83
2022-11-01T04:28:57.394Z,18.25
2022-11-01T04:31:34.141Z,18.98
2022-11-01T04:34:05.457Z,19.52
2022-11-01T04:36:32.495Z,19.00
2022-11-01T04:39:01.331Z,20.42
2022-11-01T04:41:30.697Z,18.83
2022-11-01T04:43:59.818Z,20.45
2022-11-01T04:46:30.666Z,19.83
2022-11-01T04:48:57.412Z,19.98
2022-11-01T04:51:24.155Z,22.52
2022-11-01T04:53:50.891Z,20.15
2022-11-01T04:56:17.535Z,20.90
2022-11-01T04:58:46.216Z,22.25
2022-11-01T05:01:16.310Z,22.80
2022-11-01T05:03:47.704Z,23.10
2022-11-01T05:06:14.343Z,23.55
2022-11-01T05:08:43.212Z,22.40
2022-11-01T05:11:09.866Z,23.73
2022-11-01T05:13:36.924Z,21.98
2022-11-01T05:16:18.963Z,21.42
2022-11-01T05:18:49.030Z,19.65
2022-11-01T05:21:16.048Z,19.00
2022-11-01T05:23:42.685Z,17.08
2022-11-01T05:26:09.447Z,15.85
2022-11-01T05:28:38.833Z,14.65
2022-11-01T05:31:05.558Z,15.13
2022-11-01T05:33:34.628Z,14.73
2022-11-01T05:36:04.166Z,13.90
2022-11-01T05:38:30.825Z,12.95
2022-11-01T05:40:57.491Z,11.52
2022-11-01T05:43:28.786Z,12.93
2022-11-01T05:45:55.411Z,11.88
2022-11-01T05:48:22.097Z,11.88
2022-11-01T05:50:51.294Z,11.50
2022-11-01T05:53:17.946Z,11.30
2022-11-01T05:55:46.732Z,10.70
2022-11-01T05:58:13.457Z,10.73
2022-11-01T06:00:40.097Z,10.20
2022-11-01T06:03:07.414Z,10.77
2022-11-01T06:05:34.773Z,10.35
2022-11-01T06:08:02.513Z,9.50
2022-11-01T06:10:29.818Z,8.48
2022-11-01T06:12:59.329Z,8.68
2022-11-01T06:15:26.160Z,9.20
2022-11-01T06:17:58.202Z,8.60
2022-11-01T06:20:26.320Z,8.68
2022-11-01T06:22:53.278Z,7.93
2022-11-01T06:25:22.138Z,8.23
2022-11-01T06:27:51.258Z,8.02
2022-11-01T06:30:17.914Z,7.63
2022-11-01T06:32:49.154Z,7.43
2022-11-01T06:35:18.343Z,7.30
2022-11-01T06:37:44.973Z,7.53
2022-11-01T06:40:12.959Z,7.60
2022-11-01T06:42:45.402Z,6.65
2022-11-01T06:45:13.525Z,7.20
2022-11-01T06:47:42.287Z,7.30
2022-11-01T06:50:09.091Z,6.45
2022-11-01T06:52:37.846Z,6.93
2022-11-01T06:55:07.225Z,7.90
2022-11-01T06:57:33.948Z,7.88
2022-11-01T07:00:00.613Z,7.57
2022-11-01T07:02:29.854Z,7.63
2022-11-01T07:04:56.751Z,6.88
2022-11-01T07:07:23.571Z,7.53
2022-11-01T07:09:50.340Z,7.40
2022-11-01T07:12:16.983Z,6.45
2022-11-01T07:14:43.686Z,6.50
2022-11-01T07:17:17.884Z,7.13
2022-11-01T07:19:46.865Z,6.93
2022-11-01T07:22:14.846Z,5.88
2022-11-01T07:24:41.508Z,6.40
2022-11-01T07:27:08.153Z,6.43
2022-11-01T07:29:34.796Z,6.55
2022-11-01T07:32:01.460Z,5.93
2022-11-01T07:34:28.067Z,6.72
2022-11-01T07:36:54.721Z,6.88
2022-11-01T07:39:23.632Z,6.40
2022-11-01T07:41:54.253Z,6.32
2022-11-01T07:44:23.364Z,6.57
2022-11-01T07:46:50.199Z,6.20
2022-11-01T07:49:16.916Z,6.93
2022-11-01T07:51:43.589Z,6.28
2022-11-01T07:54:11.461Z,6.50
2022-11-01T07:56:40.970Z,6.55
2022-11-01T07:59:08.600Z,6.35
2022-11-01T08:01:37.532Z,6.18
2022-11-01T08:04:04.412Z,5.97
2022-11-01T08:06:33.248Z,5.97
2022-11-01T08:09:04.607Z,5.57
2022-11-01T08:11:33.731Z,5.95
2022-11-01T08:14:05.161Z,5.60
2022-11-01T08:16:32.941Z,5.32
2022-11-01T08:18:59.580Z,5.75
2022-11-01T08:21:26.264Z,5.95
2022-11-01T08:23:52.962Z,5.28
2022-11-01T08:26:19.651Z,5.50
2022-11-01T08:28:46.309Z,5.10
2022-11-01T08:31:13.023Z,5.68
2022-11-01T08:33:39.654Z,4.95
2022-11-01T08:36:06.431Z,5.25
2022-11-01T08:38:33.055Z,5.05
2022-11-01T08:41:00.388Z,5.63
2022-11-01T08:43:29.503Z,5.32
2022-11-01T08:46:00.646Z,5.63
2022-11-01T08:48:29.750Z,5.57
2022-11-01T08:50:58.629Z,4.40
2022-11-01T08:53:25.227Z,3.78
2022-11-01T08:55:55.940Z,2.72
2022-11-01T08:58:24.984Z,2.92
2022-11-01T09:00:51.743Z,2.63
2022-11-01T09:03:20.561Z,1.90
2022-11-01T09:05:47.567Z,2.17
2022-11-01T09:08:14.375Z,2.10
2022-11-01T09:10:41.046Z,1.85
2022-11-01T09:13:07.933Z,2.00
2022-11-01T09:15:34.734Z,1.92
2022-11-01T09:18:06.115Z,1.95
2022-11-01T09:20:32.855Z,1.50
2022-11-01T09:23:02.001Z,1.70
2022-11-01T09:25:28.728Z,1.77
2022-11-01T09:27:57.695Z,1.45
2022-11-01T09:30:25.941Z,1.75
2022-11-01T09:32:52.602Z,1.73
2022-11-01T09:35:19.295Z,1.50
2022-11-01T09:37:45.921Z,1.50
2022-11-01T09:40:16.039Z,1.30
2022-11-01T09:42:44.418Z,1.60
2022-11-01T09:45:19.979Z,1.50
2022-11-01T09:47:54.837Z,1.55
2022-11-01T09:50:29.375Z,1.60
2022-11-01T09:52:57.236Z,1.40
2022-11-01T09:55:49.051Z,1.48
2022-11-01T09:58:40.265Z,1.05
2022-11-01T10:01:25.234Z,1.15
2022-11-01T10:04:10.305Z,1.98
2022-11-01T10:06:43.520Z,1.23
2022-11-01T10:09:29.763Z,1.20
2022-11-01T10:12:43.696Z,1.40
2022-11-01T10:15:31.666Z,1.33
2022-11-01T10:18:32.489Z,1.15
2022-11-01T10:21:04.996Z,1.33
2022-11-01T10:23:42.590Z,1.13
2022-11-01T10:26:15.040Z,1.40
2022-11-01T10:29:07.257Z,1.10
2022-11-01T10:31:39.791Z,1.40
2022-11-01T10:34:21.525Z,1.10
2022-11-01T10:36:50.619Z,1.48
2022-11-01T10:39:56.938Z,1.10
2022-11-01T10:42:28.044Z,1.23
2022-11-01T10:45:08.710Z,1.38
2022-11-01T10:47:35.529Z,1.30
2022-11-01T10:50:19.121Z,1.20
2022-11-01T10:52:50.214Z,1.73
2022-11-01T10:55:30.624Z,1.27
2022-11-01T10:58:03.748Z,1.13
2022-11-01T11:00:34.643Z,1.42
2022-11-01T11:03:15.922Z,1.13
2022-11-01T11:05:43.250Z,1.50
2022-11-01T11:08:19.287Z,0.93
2022-11-01T11:10:46.238Z,1.17
2022-11-01T11:13:19.028Z,1.23
2022-11-01T11:15:54.496Z,1.47
2022-11-01T11:18:29.379Z,1.20
2022-11-01T11:21:00.399Z,1.10
2022-11-01T11:23:34.650Z,1.15
2022-11-01T11:26:16.621Z,1.05
2022-11-01T11:28:51.165Z,1.15
2022-11-01T11:31:34.300Z,1.20
2022-11-01T11:34:05.396Z,1.45
2022-11-01T11:36:38.118Z,1.13
2022-11-01T11:39:05.366Z,1.27
2022-11-01T11:41:33.500Z,1.63
2022-11-01T11:44:02.431Z,1.50
2022-11-01T11:46:29.388Z,1.33
2022-11-01T11:49:04.600Z,1.33
2022-11-01T11:51:40.758Z,1.60
2022-11-01T11:54:16.395Z,1.65
2022-11-01T11:56:46.119Z,1.45
2022-11-01T11:59:43.495Z,1.10
2022-11-01T12:02:20.172Z,1.30
2022-11-01T12:05:03.678Z,1.42
2022-11-01T12:07:49.048Z,1.13
2022-11-01T12:10:40.283Z,1.20
2022-11-01T12:13:34.098Z,1.67
2022-11-01T12:16:25.295Z,2.00
2022-11-01T12:19:00.714Z,1.30
2022-11-01T12:21:40.322Z,1.13
2022-11-01T12:24:24.590Z,1.40
2022-11-01T12:26:54.241Z,1.40
2022-11-01T12:29:36.165Z,0.95
2022-11-01T12:32:28.228Z,1.85
2022-11-01T12:34:59.840Z,1.50
2022-11-01T12:38:00.223Z,1.60
2022-11-01T12:40:33.382Z,1.25
2022-11-01T12:43:25.276Z,1.27
2022-11-01T12:46:13.772Z,1.20
2022-11-01T12:48:44.908Z,1.50
2022-11-01T12:51:27.269Z,1.67
2022-11-01T12:54:01.834Z,1.90
2022-11-01T12:56:28.473Z,1.70
2022-11-01T12:58:56.921Z,1.92
2022-11-01T13:01:42.615Z,1.65
2022-11-01T13:04:31.495Z,1.25
2022-11-01T13:07:16.504Z,1.40
2022-11-01T13:10:09.479Z,1.50
2022-11-01T13:12:39.029Z,1.60
2022-11-01T13:15:35.403Z,1.85
2022-11-01T13:18:40.238Z,1.20
2022-11-01T13:21:13.573Z,1.40
2022-11-01T13:23:53.093Z,1.30
2022-11-01T13:26:41.594Z,1.48
2022-11-01T13:29:20.229Z,1.50
2022-11-01T13:32:17.370Z,1.25
2022-11-01T13:34:57.738Z,1.30
2022-11-01T13:37:36.771Z,1.42
2022-11-01T13:40:12.278Z,1.38
2022-11-01T13:42:45.949Z,1.52
2022-11-01T13:45:34.579Z,1.38
2022-11-01T13:48:30.374Z,1.65
2022-11-01T13:51:00.073Z,2.10
2022-11-01T13:53:44.336Z,1.38
2022-11-01T13:56:16.814Z,1.75
2022-11-01T13:58:43.724Z,1.52
2022-11-01T14:01:40.642Z,1.50
2022-11-01T14:04:19.172Z,1.67
2022-11-01T14:07:21.951Z,1.15
2022-11-01T14:09:54.590Z,1.40
2022-11-01T14:12:35.754Z,1.45
2022-11-01T14:15:22.643Z,1.38
2022-11-01T14:17:52.617Z,1.90
2022-11-01T14:20:25.037Z,1.42
2022-11-01T14:22:53.351Z,1.75
2022-11-01T14:28:20.670Z,2.83
2022-11-01T14:30:53.645Z,2.13
2022-11-01T14:33:22.313Z,1.75
2022-11-01T14:35:57.546Z,2.00
2022-11-01T14:38:32.027Z,1.63
2022-11-01T14:41:00.120Z,1.60
2022-11-01T14:43:42.965Z,1.77
2022-11-01T14:46:23.378Z,1.63
2022-11-01T14:49:25.866Z,1.50
2022-11-01T14:51:56.560Z,1.70
2022-11-01T14:54:45.550Z,1.33
2022-11-01T14:57:25.514Z,1.25
2022-11-01T14:59:56.368Z,1.50
2022-11-01T15:02:27.108Z,1.50
2022-11-01T15:05:01.714Z,1.35
2022-11-01T15:07:38.003Z,1.55
2022-11-01T15:10:10.930Z,1.10
2022-11-01T15:12:52.280Z,1.60
2022-11-01T15:15:25.156Z,1.58
2022-11-01T15:18:02.664Z,2.83
2022-11-01T15:20:38.243Z,1.65
2022-11-01T15:23:18.799Z,1.50
2022-11-01T15:25:56.534Z,1.70
2022-11-01T15:28:37.973Z,1.50
2022-11-01T15:31:06.399Z,1.58
2022-11-01T15:33:33.886Z,1.70
2022-11-01T15:36:08.651Z,1.40
2022-11-01T15:38:50.070Z,2.30
2022-11-01T15:41:33.461Z,1.20
2022-11-01T15:44:02.144Z,1.38
2022-11-01T15:46:41.560Z,2.03
2022-11-01T15:49:15.715Z,1.58
2022-11-01T15:51:52.575Z,1.33
2022-11-01T15:54:39.487Z,2.13
2022-11-01T15:57:26.445Z,1.70
2022-11-01T15:59:59.677Z,2.00
2022-11-01T16:02:31.858Z,1.80
2022-11-01T16:04:59.846Z,1.58
2022-11-01T16:07:30.213Z,1.60
2022-11-01T16:10:00.109Z,1.70
2022-11-01T16:12:34.643Z,1.98
2022-11-01T16:15:06.432Z,2.03
2022-11-01T16:17:37.277Z,3.28
2022-11-01T16:20:25.115Z,3.60
2022-11-01T16:22:52.071Z,3.65
2022-11-01T16:25:25.077Z,2.72
2022-11-01T16:28:05.621Z,2.27
2022-11-01T16:30:40.668Z,2.08
2022-11-01T16:33:36.491Z,2.60
2022-11-01T16:36:31.757Z,2.60
2022-11-01T16:39:20.690Z,2.30
2022-11-01T16:41:48.513Z,1.30
2022-11-01T16:44:16.191Z,1.48
2022-11-01T16:46:43.170Z,2.13
2022-11-01T16:49:23.648Z,1.65
2022-11-01T16:51:52.324Z,1.58
2022-11-01T16:54:19.109Z,1.63
2022-11-01T16:56:52.435Z,1.48
2022-11-01T16:59:26.749Z,1.42
2022-11-01T17:01:55.798Z,1.58
2022-11-01T17:04:22.918Z,2.33
2022-11-01T17:06:50.514Z,1.40
2022-11-01T17:09:19.678Z,1.50
2022-11-01T17:11:51.848Z,2.08
2022-11-01T17:14:19.391Z,1.65
2022-11-01T17:16:47.754Z,1.90
2022-11-01T17:19:30.288Z,1.50
2022-11-01T17:22:00.131Z,1.40
2022-11-01T17:24:30.111Z,1.77
2022-11-01T17:27:00.672Z,1.38
2022-11-01T17:29:31.468Z,1.88
2022-11-01T17:31:59.285Z,1.50
2022-11-01T17:34:28.991Z,1.60
2022-11-01T17:36:57.370Z,1.25
2022-11-01T17:39:27.566Z,1.77
2022-11-01T17:41:56.943Z,1.50
2022-11-01T17:44:23.631Z,1.83
2022-11-01T17:46:50.431Z,1.42
2022-11-01T17:49:21.302Z,1.38
2022-11-01T17:51:53.307Z,1.50
2022-11-01T17:54:21.649Z,1.65
2022-11-01T17:56:48.453Z,1.73
2022-11-01T17:59:15.211Z,1.30
2022-11-01T18:01:45.282Z,1.30
2022-11-01T18:04:12.166Z,1.65
2022-11-01T18:06:40.743Z,1.85
2022-11-01T18:09:21.001Z,2.00
2022-11-01T18:11:51.423Z,1.50
2022-11-01T18:14:37.311Z,1.92
2022-11-01T18:17:24.644Z,1.80
2022-11-01T18:20:07.839Z,2.00
2022-11-01T18:23:06.788Z,1.38
2022-11-01T18:25:47.925Z,1.33
2022-11-01T18:28:30.415Z,1.70
2022-11-01T18:31:04.672Z,1.13
2022-11-01T18:33:38.350Z,1.45
2022-11-01T18:36:32.751Z,1.45
2022-11-01T18:41:50.418Z,1.58
2022-11-01T18:44:19.522Z,1.42
2022-11-01T18:46:57.625Z,1.77
2022-11-01T18:49:30.698Z,1.70
2022-11-01T18:51:58.520Z,2.10
2022-11-01T18:54:33.065Z,2.60
2022-11-01T18:57:12.581Z,2.28
2022-11-01T18:59:44.635Z,1.35
2022-11-01T19:02:15.839Z,1.92
2022-11-01T19:04:46.708Z,2.00
2022-11-01T19:07:23.047Z,1.65
2022-11-01T19:09:55.993Z,1.63
2022-11-01T19:12:41.115Z,1.80
2022-11-01T19:15:16.386Z,1.88
2022-11-01T19:17:49.586Z,2.00
2022-11-01T19:20:27.834Z,1.83
2022-11-01T19:23:11.180Z,1.73
2022-11-01T19:25:38.278Z,1.77
2022-11-01T19:28:35.406Z,1.40
2022-11-01T19:31:15.770Z,1.38
2022-11-01T19:33:46.433Z,1.90
2022-11-01T19:36:20.779Z,2.08
2022-11-01T19:38:53.652Z,1.65
2022-11-01T19:41:29.083Z,1.70
2022-11-01T19:44:04.437Z,1.60
2022-11-01T19:46:31.193Z,1.90
2022-11-01T19:48:57.858Z,1.95
2022-11-01T19:51:26.468Z,1.98
2022-11-01T19:53:54.234Z,2.28
2022-11-01T19:56:31.335Z,1.80
2022-11-01T19:59:00.327Z,2.33
2022-11-01T20:01:34.271Z,2.00
2022-11-01T20:04:27.708Z,2.35
2022-11-01T20:07:20.020Z,2.58
2022-11-01T20:09:48.155Z,2.25
2022-11-01T20:12:20.040Z,2.00
2022-11-01T20:14:48.391Z,2.70
2022-11-01T20:17:15.673Z,2.50
2022-11-01T20:19:42.424Z,2.05
2022-11-01T20:22:09.208Z,2.53
2022-11-01T20:24:37.196Z,2.33
2022-11-01T20:27:06.665Z,2.75
2022-11-01T20:29:35.873Z,3.22
2022-11-01T20:32:02.616Z,2.40
2022-11-01T20:34:29.329Z,2.38
2022-11-01T20:39:50.159Z,1.65
2022-11-01T20:42:16.986Z,2.65
2022-11-01T20:44:45.860Z,1.92
2022-11-01T20:47:12.724Z,2.00
2022-11-01T20:49:39.534Z,1.52
2022-11-01T20:52:37.988Z,1.80
2022-11-01T20:54:59.997Z,1.77
2022-11-01T20:57:28.445Z,1.70
2022-11-01T20:59:55.945Z,2.33
2022-11-01T21:02:23.232Z,2.20
2022-11-01T21:05:05.369Z,1.70
2022-11-01T21:07:33.840Z,1.50
2022-11-01T21:10:00.539Z,2.08
2022-11-01T21:12:48.938Z,1.90
2022-11-01T21:15:33.392Z,1.80
2022-11-01T21:18:20.027Z,1.98
2022-11-01T21:20:49.119Z,1.60
2022-11-01T21:23:46.210Z,1.92
2022-11-01T21:26:21.801Z,2.33
2022-11-01T21:28:54.604Z,2.20
2022-11-01T21:31:31.418Z,2.50
2022-11-01T21:34:19.505Z,2.33
2022-11-01T21:36:50.664Z,1.63
2022-11-01T21:39:29.102Z,2.05
2022-11-01T21:42:30.770Z,2.25
2022-11-01T21:44:57.996Z,2.22
2022-11-01T21:47:27.219Z,2.25
2022-11-01T21:49:56.683Z,2.20
2022-11-01T21:52:24.041Z,2.30
2022-11-01T21:54:52.624Z,1.80
2022-11-01T21:57:19.477Z,2.95
2022-11-01T21:59:48.427Z,2.05
2022-11-01T22:02:15.883Z,3.00
2022-11-01T22:04:44.000Z,2.30
2022-11-01T22:07:11.295Z,2.63
2022-11-01T22:09:38.470Z,2.15
2022-11-01T22:12:06.771Z,1.85
2022-11-01T22:14:33.589Z,1.70
2022-11-01T22:17:02.482Z,1.83
2022-11-01T22:19:29.383Z,2.60
2022-11-01T22:21:56.776Z,2.03
2022-11-01T22:24:23.847Z,1.70
2022-11-01T22:26:50.846Z,2.13
2022-11-01T22:29:17.552Z,1.80
2022-11-01T22:31:46.677Z,1.85
2022-11-01T22:34:17.318Z,1.90
2022-11-01T22:36:44.035Z,2.15
2022-11-01T22:39:15.752Z,2.05
2022-11-01T22:41:42.490Z,2.40
2022-11-01T22:44:18.809Z,2.00
2022-11-01T22:46:56.877Z,1.60
2022-11-01T22:49:34.004Z,1.67
2022-11-01T22:52:17.571Z,1.52
2022-11-01T22:54:47.603Z,1.70
2022-11-01T22:57:50.029Z,1.50
2022-11-01T23:00:27.424Z,1.45
2022-11-01T23:03:01.066Z,1.55
2022-11-01T23:05:30.321Z,1.75
2022-11-01T23:08:03.981Z,1.80
2022-11-01T23:10:39.318Z,1.67
2022-11-01T23:13:36.615Z,1.55
2022-11-01T23:16:24.940Z,2.05
2022-11-01T23:18:57.548Z,2.03
2022-11-01T23:21:24.778Z,1.50
2022-11-01T23:23:53.639Z,1.33
2022-11-01T23:26:22.485Z,1.67
2022-11-01T23:28:52.078Z,1.65
2022-11-01T23:31:21.674Z,1.77
2022-11-01T23:33:49.185Z,2.60
2022-11-01T23:36:35.054Z,1.85
2022-11-01T23:39:11.626Z,2.17
2022-11-01T23:41:41.711Z,1.90
2022-11-01T23:44:35.871Z,2.45
2022-11-01T23:47:16.356Z,1.95
2022-11-01T23:49:48.856Z,1.80
2022-11-01T23:52:45.607Z,2.45
2022-11-01T23:55:33.416Z,2.70
2022-11-01T23:58:02.441Z,3.17
